Hallie, Kentucky
Current Conditions -  °F | °C
As of 7:15 PM on Thursday 27 Nov 2014 (Local Time) from KI35 Reporting Station
Overcast Overcast  
Wind Chill: 25°   Ceiling: 3200
Heat Index: 30°   Visibility: 10mi
Dew Point: 23°   Wind: 5mph
Humidity: 75%   Direction: 270°W
Pressure: 30.34"   Gusts: NA
Location:  37°N, 83.06°W
Report Text: KI35 280015Z AUTO 27004KT 10SM SCT019 BKN032 OVC039 M01/M05 A3034 RMK AO1
Loading
Personal Weather Stations






























Interactive Weather Map New forecast layout! Learn more

10-Day Weather Forecast

Advertisements
Track Severe Weather on mobile